createdAt,value
2023-05-05T00:01:20.846Z,100.00
2023-05-05T00:03:47.643Z,100.00
2023-05-05T00:06:14.804Z,100.00
2023-05-05T00:08:42.546Z,100.00
2023-05-05T00:11:09.433Z,100.00
2023-05-05T00:13:36.026Z,100.00
2023-05-05T00:16:02.558Z,100.00
2023-05-05T00:18:29.657Z,100.00
2023-05-05T00:20:56.244Z,100.00
2023-05-05T00:23:24.426Z,100.00
2023-05-05T00:25:51.295Z,100.00
2023-05-05T00:28:17.902Z,100.00
2023-05-05T00:30:45.418Z,100.00
2023-05-05T00:33:12.392Z,100.00
2023-05-05T00:35:39.045Z,100.00
2023-05-05T00:38:05.646Z,100.00
2023-05-05T00:40:32.573Z,100.00
2023-05-05T00:42:59.832Z,100.00
2023-05-05T00:45:26.457Z,100.00
2023-05-05T00:47:56.528Z,100.00
2023-05-05T00:50:31.328Z,100.00
2023-05-05T00:53:02.384Z,100.00
2023-05-05T00:55:31.074Z,100.00
2023-05-05T00:58:02.090Z,100.00
2023-05-05T01:00:30.840Z,100.00
2023-05-05T01:02:57.919Z,100.00
2023-05-05T01:05:27.982Z,100.00
2023-05-05T01:08:21.450Z,100.00
2023-05-05T01:11:01.358Z,100.00
2023-05-05T01:13:37.440Z,100.00
2023-05-05T01:16:13.993Z,100.00
2023-05-05T01:18:52.462Z,100.00
2023-05-05T01:21:27.630Z,100.00
2023-05-05T01:24:32.024Z,100.00
2023-05-05T01:27:21.222Z,100.00
2023-05-05T01:30:13.223Z,100.00
2023-05-05T01:32:46.437Z,100.00
2023-05-05T01:35:20.718Z,100.00
2023-05-05T01:37:59.543Z,100.00
2023-05-05T01:40:30.398Z,100.00
2023-05-05T01:42:58.695Z,100.00
2023-05-05T01:45:28.620Z,100.00
2023-05-05T01:47:56.613Z,100.00
2023-05-05T01:50:26.093Z,100.00
2023-05-05T01:52:54.476Z,100.00
2023-05-05T01:55:25.168Z,100.00
2023-05-05T01:57:54.321Z,100.00
2023-05-05T02:00:22.784Z,100.00
2023-05-05T02:02:50.540Z,100.00
2023-05-05T02:05:19.914Z,100.00
2023-05-05T02:07:47.014Z,100.00
2023-05-05T02:10:14.983Z,100.00
2023-05-05T02:12:43.566Z,100.00
2023-05-05T02:15:11.410Z,100.00
2023-05-05T02:17:42.360Z,100.00
2023-05-05T02:20:12.269Z,100.00
2023-05-05T02:22:38.851Z,100.00
2023-05-05T02:25:06.445Z,100.00
2023-05-05T02:27:35.922Z,100.00
2023-05-05T02:30:07.349Z,100.00
2023-05-05T02:32:37.741Z,100.00
2023-05-05T02:35:12.513Z,100.00
2023-05-05T02:37:40.689Z,100.00
2023-05-05T02:40:09.307Z,100.00
2023-05-05T02:42:39.402Z,100.00
2023-05-05T02:45:12.564Z,100.00
2023-05-05T02:47:39.137Z,100.00
2023-05-05T02:50:07.597Z,100.00
2023-05-05T02:52:35.208Z,100.00
2023-05-05T02:55:03.247Z,100.00
2023-05-05T02:57:49.025Z,100.00
2023-05-05T03:00:32.689Z,100.00
2023-05-05T03:03:16.602Z,100.00
2023-05-05T03:05:56.097Z,100.00
2023-05-05T03:08:44.429Z,100.00
2023-05-05T03:11:21.311Z,100.00
2023-05-05T03:13:51.752Z,100.00
2023-05-05T03:16:20.047Z,100.00
2023-05-05T03:18:48.610Z,100.00
2023-05-05T03:21:15.315Z,100.00
2023-05-05T03:23:42.036Z,100.00
2023-05-05T03:26:08.845Z,100.00
2023-05-05T03:28:35.386Z,100.00
2023-05-05T03:31:03.541Z,100.00
2023-05-05T03:33:30.126Z,100.00
2023-05-05T03:35:56.683Z,100.00
2023-05-05T03:38:23.278Z,100.00
2023-05-05T03:40:49.859Z,100.00
2023-05-05T03:43:16.455Z,100.00
2023-05-05T03:45:43.176Z,100.00
2023-05-05T03:48:10.183Z,100.00
2023-05-05T03:50:36.807Z,100.00
2023-05-05T03:53:03.545Z,100.00
2023-05-05T03:55:30.130Z,100.00
2023-05-05T03:57:56.785Z,100.00
2023-05-05T04:00:23.733Z,100.00
2023-05-05T04:02:50.581Z,100.00
2023-05-05T04:05:17.515Z,100.00
2023-05-05T04:07:44.050Z,100.00
2023-05-05T04:10:10.749Z,100.00
2023-05-05T04:12:37.454Z,100.00
2023-05-05T04:15:04.766Z,100.00
2023-05-05T04:17:31.343Z,100.00
2023-05-05T04:19:58.060Z,100.00
2023-05-05T04:22:24.632Z,100.00
2023-05-05T04:24:51.233Z,100.00
2023-05-05T04:27:17.846Z,100.00
2023-05-05T04:29:44.527Z,100.00
2023-05-05T04:32:11.103Z,100.00
2023-05-05T04:34:37.958Z,100.00
2023-05-05T04:37:04.541Z,100.00
2023-05-05T04:39:32.563Z,100.00
2023-05-05T04:41:59.294Z,100.00
2023-05-05T04:44:25.909Z,100.00
2023-05-05T04:46:52.564Z,100.00
2023-05-05T04:49:19.214Z,100.00
2023-05-05T04:51:46.754Z,100.00
2023-05-05T04:54:13.724Z,100.00
2023-05-05T04:56:40.300Z,100.00
2023-05-05T04:59:07.704Z,100.00
2023-05-05T05:01:35.758Z,100.00
2023-05-05T05:04:05.051Z,100.00
2023-05-05T05:06:32.387Z,100.00
2023-05-05T05:08:59.001Z,100.00
2023-05-05T05:11:25.670Z,100.00
2023-05-05T05:13:53.207Z,100.00
2023-05-05T05:16:19.873Z,100.00
2023-05-05T05:18:46.513Z,100.00
2023-05-05T05:21:13.376Z,100.00
2023-05-05T05:23:40.090Z,100.00
2023-05-05T05:26:06.628Z,100.00
2023-05-05T05:28:33.209Z,100.00
2023-05-05T05:31:00.545Z,100.00
2023-05-05T05:33:28.633Z,100.00
2023-05-05T05:35:55.166Z,100.00
2023-05-05T05:38:21.755Z,100.00
2023-05-05T05:40:48.311Z,100.00
2023-05-05T05:43:14.976Z,100.00
2023-05-05T05:45:41.739Z,100.00
2023-05-05T05:48:08.349Z,100.00
2023-05-05T05:50:36.473Z,100.00
2023-05-05T05:53:03.146Z,100.00
2023-05-05T05:55:29.859Z,100.00
2023-05-05T05:57:56.489Z,100.00
2023-05-05T06:00:23.276Z,100.00
2023-05-05T06:02:51.426Z,100.00
2023-05-05T06:05:18.433Z,100.00
2023-05-05T06:07:45.229Z,100.00
2023-05-05T06:10:26.565Z,100.00
2023-05-05T06:12:54.484Z,100.00
2023-05-05T06:15:21.178Z,100.00
2023-05-05T06:17:47.864Z,100.00
2023-05-05T06:20:14.604Z,100.00
2023-05-05T06:22:41.251Z,100.00
2023-05-05T06:25:08.324Z,100.00
2023-05-05T06:27:35.299Z,100.00
2023-05-05T06:30:01.917Z,100.00
2023-05-05T06:32:28.511Z,100.00
2023-05-05T06:34:55.277Z,100.00
2023-05-05T06:37:21.841Z,100.00
2023-05-05T06:39:49.105Z,100.00
2023-05-05T06:42:15.711Z,100.00
2023-05-05T06:44:42.254Z,100.00
2023-05-05T06:47:08.927Z,100.00
2023-05-05T06:49:35.571Z,100.00
2023-05-05T06:52:02.165Z,100.00
2023-05-05T06:54:28.758Z,100.00
2023-05-05T06:56:56.193Z,100.00
2023-05-05T06:59:23.815Z,100.00
2023-05-05T07:01:51.873Z,100.00
2023-05-05T07:04:18.892Z,100.00
2023-05-05T07:06:45.566Z,100.00
2023-05-05T07:09:13.042Z,100.00
2023-05-05T07:11:39.957Z,100.00
2023-05-05T07:14:06.602Z,100.00
2023-05-05T07:16:34.971Z,100.00
2023-05-05T07:19:01.902Z,100.00
2023-05-05T07:21:28.460Z,100.00
2023-05-05T07:23:55.477Z,100.00
2023-05-05T07:26:22.182Z,100.00
2023-05-05T07:28:48.776Z,100.00
2023-05-05T07:31:15.541Z,100.00
2023-05-05T07:33:42.430Z,100.00
2023-05-05T07:36:09.134Z,100.00
2023-05-05T07:38:35.961Z,100.00
2023-05-05T07:41:03.353Z,100.00
2023-05-05T07:43:30.048Z,100.00
2023-05-05T07:45:56.659Z,95.34
2023-05-05T07:48:23.233Z,100.00
2023-05-05T07:50:49.811Z,100.00
2023-05-05T07:53:16.383Z,98.67
2023-05-05T07:55:42.939Z,100.00
2023-05-05T07:58:11.245Z,99.49
2023-05-05T08:00:38.492Z,98.03
2023-05-05T08:03:06.235Z,95.83
2023-05-05T08:05:33.754Z,93.28
2023-05-05T08:08:00.557Z,95.98
2023-05-05T08:10:30.056Z,100.00
2023-05-05T08:12:56.884Z,100.00
2023-05-05T08:15:23.495Z,87.27
2023-05-05T08:17:52.685Z,93.70
2023-05-05T08:20:20.664Z,92.77
2023-05-05T08:22:47.829Z,100.00
2023-05-05T08:25:14.579Z,97.60
2023-05-05T08:27:42.427Z,87.29
2023-05-05T08:30:10.241Z,89.86
2023-05-05T08:32:37.204Z,98.44
2023-05-05T08:35:05.316Z,93.73
2023-05-05T08:37:32.001Z,87.70
2023-05-05T08:39:58.747Z,84.67
2023-05-05T08:42:37.273Z,85.31
2023-05-05T08:45:07.432Z,86.28
2023-05-05T08:47:36.465Z,85.74
2023-05-05T08:50:05.802Z,82.54
2023-05-05T08:52:40.468Z,81.82
2023-05-05T08:55:18.126Z,76.96
2023-05-05T08:57:53.123Z,78.40
2023-05-05T09:00:20.590Z,94.17
2023-05-05T09:02:48.037Z,94.33
2023-05-05T09:05:15.592Z,96.86
2023-05-05T09:07:44.263Z,83.00
2023-05-05T09:10:12.630Z,88.74
2023-05-05T09:12:40.599Z,87.28
2023-05-05T09:15:12.052Z,87.09
2023-05-05T09:17:39.741Z,83.11
2023-05-05T09:20:08.138Z,82.06
2023-05-05T09:22:37.947Z,79.02
2023-05-05T09:25:06.546Z,85.99
2023-05-05T09:27:38.170Z,84.25
2023-05-05T09:30:10.250Z,90.57
2023-05-05T09:32:50.795Z,80.15
2023-05-05T09:35:18.488Z,80.19
2023-05-05T09:37:45.287Z,92.16
2023-05-05T09:40:15.331Z,82.67
2023-05-05T09:42:42.441Z,77.61
2023-05-05T09:45:18.191Z,76.14
2023-05-05T09:47:47.308Z,73.50
2023-05-05T09:50:21.560Z,85.58
2023-05-05T09:52:58.848Z,81.29
2023-05-05T09:55:29.564Z,85.78
2023-05-05T09:57:56.342Z,84.23
2023-05-05T10:00:37.487Z,71.73
2023-05-05T10:03:04.495Z,67.33
2023-05-05T10:05:31.064Z,76.06
2023-05-05T10:08:13.620Z,65.49
2023-05-05T10:10:51.652Z,69.50
2023-05-05T10:13:19.936Z,73.93
2023-05-05T10:15:50.120Z,69.89
2023-05-05T10:18:21.270Z,70.86
2023-05-05T10:20:52.188Z,65.64
2023-05-05T10:23:20.939Z,63.14
2023-05-05T10:25:59.153Z,61.29
2023-05-05T10:28:33.072Z,57.58
2023-05-05T10:31:04.263Z,67.63
2023-05-05T10:34:04.257Z,63.01
2023-05-05T10:36:32.032Z,61.41
2023-05-05T10:39:00.278Z,64.45
2023-05-05T10:41:27.223Z,61.39
2023-05-05T10:43:57.475Z,64.16
2023-05-05T10:46:28.352Z,64.64
2023-05-05T10:49:04.853Z,62.02
2023-05-05T10:51:40.016Z,60.86
2023-05-05T10:54:20.979Z,65.57
2023-05-05T10:56:47.586Z,65.31
2023-05-05T10:59:36.868Z,67.58
2023-05-05T11:02:29.952Z,68.29
2023-05-05T11:05:25.959Z,77.19
2023-05-05T11:07:52.648Z,72.78
2023-05-05T11:10:20.859Z,67.02
2023-05-05T11:13:03.156Z,70.63
2023-05-05T11:15:30.316Z,66.71
2023-05-05T11:17:58.779Z,66.70
2023-05-05T11:20:40.604Z,69.25
2023-05-05T11:23:07.459Z,67.50
2023-05-05T11:25:37.832Z,64.27
2023-05-05T11:28:14.617Z,63.77
2023-05-05T11:30:57.465Z,69.49
2023-05-05T11:33:31.185Z,59.01
2023-05-05T11:35:59.472Z,62.70
2023-05-05T11:38:53.851Z,62.89
2023-05-05T11:41:26.140Z,67.38
2023-05-05T11:44:17.298Z,62.35
2023-05-05T11:46:54.024Z,62.82
2023-05-05T11:49:31.862Z,65.53
2023-05-05T11:52:08.020Z,62.82
2023-05-05T11:54:36.356Z,65.42
2023-05-05T11:57:05.656Z,68.54
2023-05-05T11:59:50.239Z,62.63
2023-05-05T12:02:18.248Z,65.40
2023-05-05T12:04:45.543Z,65.67
2023-05-05T12:07:20.216Z,63.92
2023-05-05T12:09:49.592Z,63.84
2023-05-05T12:12:17.178Z,64.17
2023-05-05T12:14:47.950Z,64.72
2023-05-05T12:17:14.603Z,63.35
2023-05-05T12:20:09.139Z,66.67
2023-05-05T12:22:36.519Z,68.30
2023-05-05T12:25:08.230Z,70.15
2023-05-05T12:27:38.945Z,72.89
2023-05-05T12:30:16.874Z,74.43
2023-05-05T12:32:44.198Z,81.93
2023-05-05T12:35:12.403Z,84.24
2023-05-05T12:37:39.297Z,83.62
2023-05-05T12:40:07.323Z,92.85
2023-05-05T12:42:39.067Z,91.83
2023-05-05T12:45:07.373Z,89.96
2023-05-05T12:47:34.400Z,83.90
2023-05-05T12:50:03.245Z,76.95
2023-05-05T12:52:51.933Z,75.83
2023-05-05T12:55:19.867Z,69.44
2023-05-05T12:58:04.726Z,66.84
2023-05-05T13:00:31.785Z,60.98
2023-05-05T13:02:58.675Z,57.73
2023-05-05T13:05:41.131Z,53.51
2023-05-05T13:08:07.797Z,56.40
2023-05-05T13:10:34.504Z,53.88
2023-05-05T13:13:01.088Z,60.19
2023-05-05T13:15:28.295Z,61.69
2023-05-05T13:18:01.711Z,63.15
2023-05-05T13:20:29.028Z,58.70
2023-05-05T13:22:55.681Z,55.25
2023-05-05T13:25:22.539Z,55.41
2023-05-05T13:27:49.178Z,58.59
2023-05-05T13:30:16.064Z,50.09
2023-05-05T13:32:42.699Z,54.62
2023-05-05T13:35:09.480Z,50.84
2023-05-05T13:37:36.594Z,50.55
2023-05-05T13:40:03.735Z,51.80
2023-05-05T13:42:30.305Z,51.05
2023-05-05T13:44:56.837Z,53.49
2023-05-05T13:47:23.560Z,53.44
2023-05-05T13:49:50.223Z,51.31
2023-05-05T13:52:16.788Z,50.30
2023-05-05T13:54:43.431Z,52.83
2023-05-05T13:57:11.224Z,51.39
2023-05-05T13:59:37.967Z,52.20
2023-05-05T14:02:05.572Z,52.36
2023-05-05T14:04:32.301Z,51.77
2023-05-05T14:06:58.990Z,52.94
2023-05-05T14:09:26.076Z,53.82
2023-05-05T14:11:52.629Z,54.35
2023-05-05T14:14:19.784Z,54.01
2023-05-05T14:16:48.663Z,54.64
2023-05-05T14:19:16.780Z,55.52
2023-05-05T14:21:43.318Z,57.46
2023-05-05T14:24:10.063Z,59.98
2023-05-05T14:26:36.625Z,64.03
2023-05-05T14:29:03.831Z,73.97
2023-05-05T14:31:30.649Z,81.88
2023-05-05T14:33:57.214Z,83.04
2023-05-05T14:36:23.868Z,89.46
2023-05-05T14:38:50.704Z,86.54
2023-05-05T14:41:17.311Z,90.35
2023-05-05T14:43:43.919Z,87.88
2023-05-05T14:46:10.889Z,93.68
2023-05-05T14:48:37.777Z,93.14
2023-05-05T14:51:04.867Z,94.73
2023-05-05T14:53:31.551Z,94.57
2023-05-05T14:55:58.358Z,95.00
2023-05-05T14:58:25.244Z,95.02
2023-05-05T15:00:53.004Z,97.22
2023-05-05T15:03:19.670Z,94.94
2023-05-05T15:05:46.624Z,93.29
2023-05-05T15:08:14.627Z,93.88
2023-05-05T15:10:41.545Z,94.64
2023-05-05T15:13:08.108Z,96.41
2023-05-05T15:15:35.753Z,100.00
2023-05-05T15:18:02.402Z,98.69
2023-05-05T15:20:29.162Z,100.00
2023-05-05T15:22:55.867Z,99.42
2023-05-05T15:25:22.473Z,98.82
2023-05-05T15:27:49.509Z,99.53
2023-05-05T15:30:16.196Z,98.63
2023-05-05T15:32:43.028Z,99.33
2023-05-05T15:35:09.820Z,100.00
2023-05-05T15:37:37.969Z,100.00
2023-05-05T15:40:05.656Z,100.00
2023-05-05T15:42:33.915Z,100.00
2023-05-05T15:45:04.777Z,100.00
2023-05-05T15:47:31.530Z,100.00
2023-05-05T15:49:58.121Z,100.00
2023-05-05T15:52:24.698Z,100.00
2023-05-05T15:54:51.268Z,100.00
2023-05-05T15:57:17.874Z,100.00
2023-05-05T15:59:44.604Z,100.00
2023-05-05T16:02:11.626Z,100.00
2023-05-05T16:04:38.171Z,100.00
2023-05-05T16:07:04.675Z,100.00
2023-05-05T16:09:31.286Z,100.00
2023-05-05T16:11:57.866Z,100.00
2023-05-05T16:14:24.987Z,100.00
2023-05-05T16:16:51.570Z,100.00
2023-05-05T16:19:18.301Z,100.00
2023-05-05T16:21:45.070Z,100.00
2023-05-05T16:24:16.196Z,100.00
2023-05-05T16:26:43.751Z,100.00
2023-05-05T16:29:10.672Z,100.00
2023-05-05T16:31:37.743Z,100.00
2023-05-05T16:34:04.682Z,100.00
2023-05-05T16:36:31.403Z,100.00
2023-05-05T16:38:58.866Z,100.00
2023-05-05T16:41:26.485Z,100.00
2023-05-05T16:43:55.809Z,100.00
2023-05-05T16:46:22.463Z,100.00
2023-05-05T16:48:49.214Z,100.00
2023-05-05T16:51:15.824Z,100.00
2023-05-05T16:53:42.448Z,100.00
2023-05-05T16:56:13.224Z,100.00
2023-05-05T16:58:40.344Z,100.00
2023-05-05T17:01:07.004Z,100.00
2023-05-05T17:03:34.670Z,100.00
2023-05-05T17:06:01.289Z,100.00
2023-05-05T17:08:27.978Z,100.00
2023-05-05T17:10:54.591Z,100.00
2023-05-05T17:13:23.123Z,100.00
2023-05-05T17:15:52.693Z,100.00
2023-05-05T17:18:21.291Z,100.00
2023-05-05T17:20:49.233Z,100.00
2023-05-05T17:23:16.797Z,100.00
2023-05-05T17:25:43.429Z,100.00
2023-05-05T17:28:11.355Z,100.00
2023-05-05T17:30:37.949Z,100.00
2023-05-05T17:33:04.751Z,100.00
2023-05-05T17:35:33.360Z,100.00
2023-05-05T17:38:00.047Z,100.00
2023-05-05T17:40:26.776Z,100.00
2023-05-05T17:42:53.332Z,100.00
2023-05-05T17:45:19.978Z,100.00
2023-05-05T17:47:46.622Z,100.00
2023-05-05T17:50:13.163Z,100.00
2023-05-05T17:52:41.200Z,100.00
2023-05-05T17:55:08.544Z,100.00
2023-05-05T17:57:35.679Z,100.00
2023-05-05T18:00:06.857Z,100.00
2023-05-05T18:02:36.887Z,100.00
2023-05-05T18:05:04.309Z,100.00
2023-05-05T18:07:30.904Z,100.00
2023-05-05T18:09:57.822Z,100.00
2023-05-05T18:12:24.377Z,100.00
2023-05-05T18:14:52.049Z,100.00
2023-05-05T18:17:18.639Z,100.00
2023-05-05T18:19:47.243Z,100.00
2023-05-05T18:22:15.637Z,100.00
2023-05-05T18:24:42.277Z,100.00
2023-05-05T18:27:09.066Z,100.00
2023-05-05T18:29:36.302Z,100.00
2023-05-05T18:32:02.909Z,100.00
2023-05-05T18:34:29.728Z,100.00
2023-05-05T18:36:57.257Z,100.00
2023-05-05T18:39:24.244Z,100.00
2023-05-05T18:41:50.829Z,100.00
2023-05-05T18:44:18.689Z,100.00
2023-05-05T18:46:47.186Z,100.00
2023-05-05T18:49:13.841Z,100.00
2023-05-05T18:51:40.843Z,100.00
2023-05-05T18:54:07.658Z,100.00
2023-05-05T18:56:34.430Z,100.00
2023-05-05T18:59:00.967Z,100.00
2023-05-05T19:01:27.640Z,100.00
2023-05-05T19:03:54.306Z,100.00
2023-05-05T19:06:21.169Z,100.00
2023-05-05T19:08:49.064Z,100.00
2023-05-05T19:11:15.999Z,100.00
2023-05-05T19:13:42.913Z,100.00
2023-05-05T19:16:11.517Z,100.00
2023-05-05T19:18:38.836Z,100.00
2023-05-05T19:21:05.721Z,100.00
2023-05-05T19:23:32.384Z,100.00
2023-05-05T19:25:59.006Z,100.00
2023-05-05T19:28:25.579Z,100.00
2023-05-05T19:30:52.393Z,100.00
2023-05-05T19:33:19.003Z,100.00
2023-05-05T19:35:45.605Z,100.00
2023-05-05T19:38:12.382Z,100.00
2023-05-05T19:40:40.053Z,100.00
2023-05-05T19:43:07.269Z,100.00
2023-05-05T19:45:34.110Z,100.00
2023-05-05T19:48:01.745Z,100.00
2023-05-05T19:50:30.625Z,100.00
2023-05-05T19:52:57.577Z,100.00
2023-05-05T19:55:27.230Z,100.00
2023-05-05T19:57:54.142Z,100.00
2023-05-05T20:00:20.789Z,100.00
2023-05-05T20:02:49.226Z,100.00
2023-05-05T20:05:17.960Z,100.00
2023-05-05T20:07:46.442Z,100.00
2023-05-05T20:10:16.798Z,100.00
2023-05-05T20:12:49.073Z,100.00
2023-05-05T20:15:18.911Z,100.00
2023-05-05T20:17:47.164Z,100.00
2023-05-05T20:20:19.046Z,100.00
2023-05-05T20:22:47.591Z,100.00
2023-05-05T20:25:16.308Z,100.00
2023-05-05T20:27:43.638Z,100.00
2023-05-05T20:30:10.951Z,100.00
2023-05-05T20:32:38.246Z,100.00
2023-05-05T20:35:06.226Z,100.00
2023-05-05T20:37:32.837Z,100.00
2023-05-05T20:39:59.438Z,100.00
2023-05-05T20:42:26.473Z,100.00
2023-05-05T20:44:53.234Z,100.00
2023-05-05T20:47:19.930Z,100.00
2023-05-05T20:49:46.641Z,100.00
2023-05-05T20:52:13.374Z,100.00
2023-05-05T20:54:39.937Z,100.00
2023-05-05T20:57:09.614Z,100.00
2023-05-05T20:59:37.636Z,100.00
2023-05-05T21:02:04.692Z,100.00
2023-05-05T21:04:31.392Z,100.00
2023-05-05T21:06:58.377Z,100.00
2023-05-05T21:09:25.030Z,100.00
2023-05-05T21:11:51.653Z,100.00
2023-05-05T21:14:18.231Z,100.00
2023-05-05T21:16:44.880Z,100.00
2023-05-05T21:19:11.468Z,100.00
2023-05-05T21:21:38.059Z,100.00
2023-05-05T21:24:08.036Z,100.00
2023-05-05T21:26:34.749Z,100.00
2023-05-05T21:29:01.646Z,100.00
2023-05-05T21:31:28.237Z,100.00
2023-05-05T21:33:54.871Z,100.00
2023-05-05T21:36:21.479Z,100.00
2023-05-05T21:38:49.606Z,100.00
2023-05-05T21:41:16.935Z,100.00
2023-05-05T21:43:43.576Z,100.00
2023-05-05T21:46:10.480Z,100.00
2023-05-05T21:48:39.002Z,100.00
2023-05-05T21:51:06.828Z,100.00
2023-05-05T21:53:33.421Z,100.00
2023-05-05T21:55:59.938Z,100.00
2023-05-05T21:58:26.610Z,100.00
2023-05-05T22:00:53.272Z,100.00
2023-05-05T22:03:20.005Z,100.00
2023-05-05T22:05:47.059Z,100.00
2023-05-05T22:08:13.595Z,100.00
2023-05-05T22:10:40.210Z,100.00
2023-05-05T22:13:06.894Z,100.00
2023-05-05T22:15:45.397Z,100.00
2023-05-05T22:18:13.579Z,100.00
2023-05-05T22:20:40.773Z,100.00
2023-05-05T22:23:07.463Z,100.00
2023-05-05T22:25:34.113Z,100.00
2023-05-05T22:28:03.686Z,100.00
2023-05-05T22:30:30.313Z,100.00
2023-05-05T22:32:56.951Z,100.00
2023-05-05T22:35:23.793Z,100.00
2023-05-05T22:37:50.397Z,100.00
2023-05-05T22:40:17.075Z,100.00
2023-05-05T22:42:43.748Z,100.00
2023-05-05T22:45:11.012Z,100.00
2023-05-05T22:47:37.898Z,100.00
2023-05-05T22:50:04.664Z,100.00
2023-05-05T22:52:31.615Z,100.00
2023-05-05T22:54:58.149Z,100.00
2023-05-05T22:57:24.796Z,100.00
2023-05-05T22:59:51.700Z,100.00
2023-05-05T23:02:18.324Z,100.00
2023-05-05T23:04:45.150Z,100.00
2023-05-05T23:07:13.181Z,100.00
2023-05-05T23:09:40.846Z,100.00
2023-05-05T23:12:07.391Z,100.00
2023-05-05T23:14:34.004Z,100.00
2023-05-05T23:17:01.025Z,100.00
2023-05-05T23:19:29.189Z,100.00
2023-05-05T23:21:55.838Z,100.00
2023-05-05T23:24:22.433Z,100.00
2023-05-05T23:26:49.071Z,100.00
2023-05-05T23:29:15.835Z,100.00
2023-05-05T23:31:42.608Z,100.00
2023-05-05T23:34:09.323Z,100.00
2023-05-05T23:36:35.852Z,100.00
2023-05-05T23:39:02.413Z,100.00
2023-05-05T23:41:28.979Z,100.00
2023-05-05T23:43:56.412Z,100.00
2023-05-05T23:46:24.172Z,100.00
2023-05-05T23:48:51.245Z,100.00
2023-05-05T23:51:18.008Z,100.00
2023-05-05T23:53:44.608Z,100.00
2023-05-05T23:56:11.860Z,100.00
2023-05-05T23:58:38.559Z,100.00
